sensor_id;sensor_type;location;lat;lon;timestamp;P1;durP1;ratioP1;P2;durP2;ratioP2
14102;SDS011;7129;48.832;12.472;2022-09-17T00:04:28;2.72;;;1.80;;
14102;SDS011;7129;48.832;12.472;2022-09-17T00:09:30;2.88;;;2.22;;
14102;SDS011;7129;48.832;12.472;2022-09-17T00:19:57;1.88;;;1.77;;
14102;SDS011;7129;48.832;12.472;2022-09-17T00:24:59;2.70;;;1.90;;
14102;SDS011;7129;48.832;12.472;2022-09-17T00:30:02;4.75;;;2.08;;
14102;SDS011;7129;48.832;12.472;2022-09-17T00:35:09;2.65;;;1.80;;
14102;SDS011;7129;48.832;12.472;2022-09-17T00:40:11;2.85;;;1.95;;
14102;SDS011;7129;48.832;12.472;2022-09-17T00:45:14;2.63;;;1.73;;
14102;SDS011;7129;48.832;12.472;2022-09-17T00:50:17;2.30;;;2.10;;
14102;SDS011;7129;48.832;12.472;2022-09-17T00:55:24;2.20;;;2.08;;
14102;SDS011;7129;48.832;12.472;2022-09-17T01:00:30;2.10;;;1.70;;
14102;SDS011;7129;48.832;12.472;2022-09-17T01:05:35;2.47;;;2.17;;
14102;SDS011;7129;48.832;12.472;2022-09-17T01:11:01;2.47;;;2.10;;
14102;SDS011;7129;48.832;12.472;2022-09-17T01:16:18;2.20;;;2.00;;
14102;SDS011;7129;48.832;12.472;2022-09-17T01:21:32;2.00;;;1.90;;
14102;SDS011;7129;48.832;12.472;2022-09-17T01:26:52;2.15;;;1.95;;
14102;SDS011;7129;48.832;12.472;2022-09-17T01:32:28;2.45;;;1.90;;
14102;SDS011;7129;48.832;12.472;2022-09-17T01:37:38;2.15;;;2.05;;
14102;SDS011;7129;48.832;12.472;2022-09-17T01:42:46;2.22;;;1.98;;
14102;SDS011;7129;48.832;12.472;2022-09-17T01:47:53;2.25;;;2.15;;
14102;SDS011;7129;48.832;12.472;2022-09-17T01:52:59;2.40;;;2.08;;
14102;SDS011;7129;48.832;12.472;2022-09-17T01:58:03;2.50;;;2.30;;
14102;SDS011;7129;48.832;12.472;2022-09-17T02:03:13;2.75;;;2.30;;
14102;SDS011;7129;48.832;12.472;2022-09-17T02:08:20;2.60;;;2.40;;
14102;SDS011;7129;48.832;12.472;2022-09-17T02:13:26;2.78;;;2.30;;
14102;SDS011;7129;48.832;12.472;2022-09-17T02:18:35;3.08;;;2.58;;
14102;SDS011;7129;48.832;12.472;2022-09-17T02:23:42;2.75;;;2.55;;
14102;SDS011;7129;48.832;12.472;2022-09-17T02:28:53;2.85;;;2.28;;
14102;SDS011;7129;48.832;12.472;2022-09-17T02:34:03;2.35;;;2.03;;
14102;SDS011;7129;48.832;12.472;2022-09-17T02:39:08;2.65;;;2.20;;
14102;SDS011;7129;48.832;12.472;2022-09-17T02:44:13;3.30;;;2.20;;
14102;SDS011;7129;48.832;12.472;2022-09-17T02:49:34;3.67;;;2.10;;
14102;SDS011;7129;48.832;12.472;2022-09-17T02:54:47;2.33;;;1.90;;
14102;SDS011;7129;48.832;12.472;2022-09-17T03:00:02;2.65;;;1.67;;
14102;SDS011;7129;48.832;12.472;2022-09-17T03:05:10;3.30;;;2.03;;
14102;SDS011;7129;48.832;12.472;2022-09-17T03:10:13;3.55;;;1.90;;
14102;SDS011;7129;48.832;12.472;2022-09-17T03:15:15;2.17;;;1.52;;
14102;SDS011;7129;48.832;12.472;2022-09-17T03:20:18;1.85;;;1.75;;
14102;SDS011;7129;48.832;12.472;2022-09-17T03:25:20;2.75;;;1.67;;
14102;SDS011;7129;48.832;12.472;2022-09-17T03:30:25;3.42;;;1.70;;
14102;SDS011;7129;48.832;12.472;2022-09-17T03:35:28;3.78;;;1.60;;
14102;SDS011;7129;48.832;12.472;2022-09-17T03:40:30;2.70;;;1.75;;
14102;SDS011;7129;48.832;12.472;2022-09-17T03:45:37;4.93;;;1.70;;
14102;SDS011;7129;48.832;12.472;2022-09-17T03:50:43;2.25;;;1.85;;
14102;SDS011;7129;48.832;12.472;2022-09-17T03:55:45;2.50;;;1.73;;
14102;SDS011;7129;48.832;12.472;2022-09-17T04:00:50;2.97;;;1.77;;
14102;SDS011;7129;48.832;12.472;2022-09-17T04:05:58;6.03;;;2.85;;
14102;SDS011;7129;48.832;12.472;2022-09-17T04:11:02;2.95;;;2.40;;
14102;SDS011;7129;48.832;12.472;2022-09-17T04:16:16;5.30;;;2.60;;
14102;SDS011;7129;48.832;12.472;2022-09-17T04:21:25;3.45;;;2.45;;
14102;SDS011;7129;48.832;12.472;2022-09-17T04:26:27;3.40;;;2.50;;
14102;SDS011;7129;48.832;12.472;2022-09-17T04:31:29;5.05;;;2.13;;
14102;SDS011;7129;48.832;12.472;2022-09-17T04:36:32;2.95;;;2.35;;
14102;SDS011;7129;48.832;12.472;2022-09-17T04:41:34;5.53;;;2.90;;
14102;SDS011;7129;48.832;12.472;2022-09-17T04:46:51;3.25;;;2.63;;
14102;SDS011;7129;48.832;12.472;2022-09-17T04:57:14;4.82;;;3.50;;
14102;SDS011;7129;48.832;12.472;2022-09-17T05:02:34;6.13;;;3.15;;
14102;SDS011;7129;48.832;12.472;2022-09-17T05:13:31;4.65;;;3.28;;
14102;SDS011;7129;48.832;12.472;2022-09-17T05:18:34;4.32;;;3.20;;
14102;SDS011;7129;48.832;12.472;2022-09-17T05:23:36;5.53;;;3.75;;
14102;SDS011;7129;48.832;12.472;2022-09-17T05:28:39;6.43;;;3.45;;
14102;SDS011;7129;48.832;12.472;2022-09-17T05:33:41;4.45;;;3.55;;
14102;SDS011;7129;48.832;12.472;2022-09-17T05:38:43;3.40;;;3.10;;
14102;SDS011;7129;48.832;12.472;2022-09-17T05:43:54;5.60;;;4.18;;
14102;SDS011;7129;48.832;12.472;2022-09-17T05:49:01;6.50;;;3.35;;
14102;SDS011;7129;48.832;12.472;2022-09-17T05:54:06;4.00;;;3.00;;
14102;SDS011;7129;48.832;12.472;2022-09-17T05:59:13;4.60;;;2.95;;
14102;SDS011;7129;48.832;12.472;2022-09-17T06:04:19;7.63;;;3.15;;
14102;SDS011;7129;48.832;12.472;2022-09-17T06:09:21;4.63;;;2.92;;
14102;SDS011;7129;48.832;12.472;2022-09-17T06:14:27;3.80;;;2.60;;
14102;SDS011;7129;48.832;12.472;2022-09-17T06:19:32;4.18;;;2.92;;
14102;SDS011;7129;48.832;12.472;2022-09-17T06:24:36;6.03;;;2.60;;
14102;SDS011;7129;48.832;12.472;2022-09-17T06:29:40;4.25;;;2.33;;
14102;SDS011;7129;48.832;12.472;2022-09-17T06:34:52;5.40;;;2.20;;
14102;SDS011;7129;48.832;12.472;2022-09-17T06:40:06;2.55;;;2.15;;
14102;SDS011;7129;48.832;12.472;2022-09-17T06:45:12;7.40;;;1.98;;
14102;SDS011;7129;48.832;12.472;2022-09-17T06:50:15;6.00;;;1.80;;
14102;SDS011;7129;48.832;12.472;2022-09-17T06:55:17;4.22;;;2.15;;
14102;SDS011;7129;48.832;12.472;2022-09-17T07:00:24;6.35;;;2.15;;
14102;SDS011;7129;48.832;12.472;2022-09-17T07:05:29;5.25;;;1.98;;
14102;SDS011;7129;48.832;12.472;2022-09-17T07:10:32;4.20;;;1.90;;
14102;SDS011;7129;48.832;12.472;2022-09-17T07:15:59;6.88;;;1.77;;
14102;SDS011;7129;48.832;12.472;2022-09-17T07:21:03;6.85;;;2.45;;
14102;SDS011;7129;48.832;12.472;2022-09-17T07:31:50;4.10;;;1.80;;
14102;SDS011;7129;48.832;12.472;2022-09-17T07:36:51;4.85;;;2.00;;
14102;SDS011;7129;48.832;12.472;2022-09-17T07:41:53;4.35;;;1.58;;
14102;SDS011;7129;48.832;12.472;2022-09-17T07:46:57;2.58;;;1.70;;
14102;SDS011;7129;48.832;12.472;2022-09-17T07:51:59;3.72;;;2.20;;
14102;SDS011;7129;48.832;12.472;2022-09-17T07:57:05;3.72;;;1.77;;
14102;SDS011;7129;48.832;12.472;2022-09-17T08:02:09;4.93;;;1.60;;
14102;SDS011;7129;48.832;12.472;2022-09-17T08:07:19;3.25;;;1.42;;
14102;SDS011;7129;48.832;12.472;2022-09-17T08:12:35;4.80;;;1.75;;
14102;SDS011;7129;48.832;12.472;2022-09-17T08:17:38;4.22;;;1.70;;
14102;SDS011;7129;48.832;12.472;2022-09-17T08:22:43;4.90;;;1.73;;
14102;SDS011;7129;48.832;12.472;2022-09-17T08:27:45;1.77;;;1.08;;
14102;SDS011;7129;48.832;12.472;2022-09-17T08:32:49;1.92;;;0.90;;
14102;SDS011;7129;48.832;12.472;2022-09-17T08:37:53;2.22;;;1.10;;
14102;SDS011;7129;48.832;12.472;2022-09-17T08:42:57;3.80;;;1.10;;
14102;SDS011;7129;48.832;12.472;2022-09-17T08:48:03;3.25;;;1.20;;
14102;SDS011;7129;48.832;12.472;2022-09-17T08:53:08;1.65;;;0.80;;
14102;SDS011;7129;48.832;12.472;2022-09-17T09:04:06;1.38;;;0.85;;
14102;SDS011;7129;48.832;12.472;2022-09-17T09:09:31;2.80;;;0.60;;
14102;SDS011;7129;48.832;12.472;2022-09-17T09:14:39;2.00;;;1.13;;
14102;SDS011;7129;48.832;12.472;2022-09-17T09:19:50;1.65;;;0.70;;
14102;SDS011;7129;48.832;12.472;2022-09-17T09:24:57;1.95;;;1.30;;
14102;SDS011;7129;48.832;12.472;2022-09-17T09:30:07;1.63;;;1.38;;
14102;SDS011;7129;48.832;12.472;2022-09-17T09:35:16;2.83;;;1.40;;
14102;SDS011;7129;48.832;12.472;2022-09-17T09:40:22;4.22;;;1.17;;
14102;SDS011;7129;48.832;12.472;2022-09-17T09:45:36;1.33;;;1.20;;
14102;SDS011;7129;48.832;12.472;2022-09-17T09:51:19;2.58;;;0.95;;
14102;SDS011;7129;48.832;12.472;2022-09-17T09:56:32;2.53;;;0.93;;
14102;SDS011;7129;48.832;12.472;2022-09-17T10:01:43;1.17;;;0.80;;
14102;SDS011;7129;48.832;12.472;2022-09-17T10:06:48;1.25;;;0.90;;
14102;SDS011;7129;48.832;12.472;2022-09-17T10:11:58;1.05;;;0.80;;
14102;SDS011;7129;48.832;12.472;2022-09-17T10:17:09;2.20;;;1.55;;
14102;SDS011;7129;48.832;12.472;2022-09-17T10:22:22;1.42;;;0.98;;
14102;SDS011;7129;48.832;12.472;2022-09-17T10:27:28;0.80;;;0.80;;
14102;SDS011;7129;48.832;12.472;2022-09-17T10:32:30;1.05;;;0.82;;
14102;SDS011;7129;48.832;12.472;2022-09-17T10:37:35;3.00;;;1.08;;
14102;SDS011;7129;48.832;12.472;2022-09-17T10:42:43;1.48;;;1.10;;
14102;SDS011;7129;48.832;12.472;2022-09-17T10:47:45;1.45;;;1.10;;
14102;SDS011;7129;48.832;12.472;2022-09-17T10:52:48;1.67;;;1.08;;
14102;SDS011;7129;48.832;12.472;2022-09-17T10:58:00;1.58;;;1.23;;
14102;SDS011;7129;48.832;12.472;2022-09-17T11:03:15;1.40;;;1.30;;
14102;SDS011;7129;48.832;12.472;2022-09-17T11:08:31;2.13;;;1.42;;
14102;SDS011;7129;48.832;12.472;2022-09-17T11:13:39;3.92;;;1.50;;
14102;SDS011;7129;48.832;12.472;2022-09-17T11:18:48;2.17;;;1.70;;
14102;SDS011;7129;48.832;12.472;2022-09-17T11:24:10;2.63;;;1.77;;
14102;SDS011;7129;48.832;12.472;2022-09-17T11:29:39;2.33;;;1.63;;
14102;SDS011;7129;48.832;12.472;2022-09-17T11:34:53;4.03;;;2.05;;
14102;SDS011;7129;48.832;12.472;2022-09-17T11:40:03;3.15;;;2.30;;
14102;SDS011;7129;48.832;12.472;2022-09-17T11:45:14;5.07;;;1.85;;
14102;SDS011;7129;48.832;12.472;2022-09-17T11:50:20;3.50;;;1.98;;
14102;SDS011;7129;48.832;12.472;2022-09-17T11:55:28;4.13;;;1.98;;
14102;SDS011;7129;48.832;12.472;2022-09-17T12:00:34;3.25;;;2.10;;
14102;SDS011;7129;48.832;12.472;2022-09-17T12:05:44;5.15;;;2.58;;
14102;SDS011;7129;48.832;12.472;2022-09-17T12:10:54;6.50;;;2.17;;
14102;SDS011;7129;48.832;12.472;2022-09-17T12:16:08;7.43;;;2.20;;
14102;SDS011;7129;48.832;12.472;2022-09-17T12:21:16;7.85;;;2.10;;
14102;SDS011;7129;48.832;12.472;2022-09-17T12:26:25;6.60;;;2.20;;
14102;SDS011;7129;48.832;12.472;2022-09-17T12:31:40;7.07;;;2.55;;
14102;SDS011;7129;48.832;12.472;2022-09-17T12:36:49;7.35;;;2.65;;
14102;SDS011;7129;48.832;12.472;2022-09-17T12:47:35;7.03;;;1.92;;
14102;SDS011;7129;48.832;12.472;2022-09-17T12:53:03;5.50;;;2.22;;
14102;SDS011;7129;48.832;12.472;2022-09-17T12:58:19;5.20;;;2.38;;
14102;SDS011;7129;48.832;12.472;2022-09-17T13:03:29;5.60;;;2.00;;
14102;SDS011;7129;48.832;12.472;2022-09-17T13:08:45;3.22;;;1.83;;
14102;SDS011;7129;48.832;12.472;2022-09-17T13:14:26;7.82;;;2.47;;
14102;SDS011;7129;48.832;12.472;2022-09-17T13:19:38;4.43;;;2.42;;
14102;SDS011;7129;48.832;12.472;2022-09-17T13:24:44;5.90;;;1.98;;
14102;SDS011;7129;48.832;12.472;2022-09-17T13:29:59;3.40;;;1.50;;
14102;SDS011;7129;48.832;12.472;2022-09-17T13:35:16;3.20;;;1.52;;
14102;SDS011;7129;48.832;12.472;2022-09-17T13:40:51;4.13;;;1.75;;
14102;SDS011;7129;48.832;12.472;2022-09-17T13:46:21;4.70;;;1.52;;
14102;SDS011;7129;48.832;12.472;2022-09-17T13:57:05;5.05;;;1.98;;
14102;SDS011;7129;48.832;12.472;2022-09-17T14:07:50;1.50;;;1.40;;
14102;SDS011;7129;48.832;12.472;2022-09-17T14:13:22;2.10;;;1.42;;
14102;SDS011;7129;48.832;12.472;2022-09-17T14:24:00;4.85;;;1.63;;
14102;SDS011;7129;48.832;12.472;2022-09-17T14:29:13;1.20;;;0.80;;
14102;SDS011;7129;48.832;12.472;2022-09-17T14:34:26;2.22;;;0.88;;
14102;SDS011;7129;48.832;12.472;2022-09-17T14:39:30;1.38;;;1.10;;
14102;SDS011;7129;48.832;12.472;2022-09-17T14:44:43;0.82;;;0.82;;
14102;SDS011;7129;48.832;12.472;2022-09-17T14:49:52;1.80;;;1.13;;
14102;SDS011;7129;48.832;12.472;2022-09-17T14:55:07;3.42;;;1.50;;
14102;SDS011;7129;48.832;12.472;2022-09-17T15:00:15;3.00;;;1.38;;
14102;SDS011;7129;48.832;12.472;2022-09-17T15:05:24;2.83;;;1.45;;
14102;SDS011;7129;48.832;12.472;2022-09-17T15:10:29;3.03;;;1.60;;
14102;SDS011;7129;48.832;12.472;2022-09-17T15:15:31;2.90;;;1.40;;
14102;SDS011;7129;48.832;12.472;2022-09-17T15:20:35;2.78;;;1.70;;
14102;SDS011;7129;48.832;12.472;2022-09-17T15:25:39;1.60;;;1.40;;
14102;SDS011;7129;48.832;12.472;2022-09-17T15:30:42;2.03;;;1.27;;
14102;SDS011;7129;48.832;12.472;2022-09-17T15:35:58;2.03;;;1.27;;
14102;SDS011;7129;48.832;12.472;2022-09-17T15:41:11;2.38;;;1.10;;
14102;SDS011;7129;48.832;12.472;2022-09-17T15:46:29;1.77;;;1.30;;
14102;SDS011;7129;48.832;12.472;2022-09-17T15:51:34;2.80;;;1.48;;
14102;SDS011;7129;48.832;12.472;2022-09-17T15:56:37;4.82;;;2.63;;
14102;SDS011;7129;48.832;12.472;2022-09-17T16:01:50;4.03;;;1.92;;
14102;SDS011;7129;48.832;12.472;2022-09-17T16:06:58;2.55;;;1.63;;
14102;SDS011;7129;48.832;12.472;2022-09-17T16:12:03;2.67;;;1.30;;
14102;SDS011;7129;48.832;12.472;2022-09-17T16:17:13;5.65;;;1.23;;
14102;SDS011;7129;48.832;12.472;2022-09-17T16:22:29;2.53;;;1.40;;
14102;SDS011;7129;48.832;12.472;2022-09-17T16:27:33;1.45;;;0.90;;
14102;SDS011;7129;48.832;12.472;2022-09-17T16:32:40;0.80;;;0.80;;
14102;SDS011;7129;48.832;12.472;2022-09-17T16:37:46;1.25;;;0.75;;
14102;SDS011;7129;48.832;12.472;2022-09-17T16:48:06;1.05;;;0.80;;
14102;SDS011;7129;48.832;12.472;2022-09-17T16:53:13;9.18;;;5.85;;
14102;SDS011;7129;48.832;12.472;2022-09-17T16:58:15;1.83;;;1.25;;
14102;SDS011;7129;48.832;12.472;2022-09-17T17:03:17;1.42;;;0.80;;
14102;SDS011;7129;48.832;12.472;2022-09-17T17:08:20;1.02;;;0.95;;
14102;SDS011;7129;48.832;12.472;2022-09-17T17:13:22;0.88;;;0.80;;
14102;SDS011;7129;48.832;12.472;2022-09-17T17:18:24;1.05;;;0.95;;
14102;SDS011;7129;48.832;12.472;2022-09-17T17:23:27;1.02;;;0.93;;
14102;SDS011;7129;48.832;12.472;2022-09-17T17:28:30;2.38;;;1.05;;
14102;SDS011;7129;48.832;12.472;2022-09-17T17:34:08;1.50;;;1.30;;
14102;SDS011;7129;48.832;12.472;2022-09-17T17:39:11;1.60;;;1.40;;
14102;SDS011;7129;48.832;12.472;2022-09-17T17:44:13;1.25;;;1.15;;
14102;SDS011;7129;48.832;12.472;2022-09-17T17:49:15;3.13;;;1.05;;
14102;SDS011;7129;48.832;12.472;2022-09-17T17:59:44;1.48;;;1.38;;
14102;SDS011;7129;48.832;12.472;2022-09-17T18:05:13;3.03;;;2.08;;
14102;SDS011;7129;48.832;12.472;2022-09-17T18:10:18;2.10;;;1.27;;
14102;SDS011;7129;48.832;12.472;2022-09-17T18:15:19;3.33;;;1.73;;
14102;SDS011;7129;48.832;12.472;2022-09-17T18:20:22;3.63;;;1.40;;
14102;SDS011;7129;48.832;12.472;2022-09-17T18:25:58;2.67;;;1.40;;
14102;SDS011;7129;48.832;12.472;2022-09-17T18:31:04;1.45;;;1.10;;
14102;SDS011;7129;48.832;12.472;2022-09-17T18:36:08;2.03;;;1.08;;
14102;SDS011;7129;48.832;12.472;2022-09-17T18:41:11;1.27;;;1.10;;
14102;SDS011;7129;48.832;12.472;2022-09-17T18:46:13;1.95;;;1.30;;
14102;SDS011;7129;48.832;12.472;2022-09-17T18:51:15;2.30;;;1.52;;
14102;SDS011;7129;48.832;12.472;2022-09-17T18:56:22;2.97;;;1.10;;
14102;SDS011;7129;48.832;12.472;2022-09-17T19:01:31;1.65;;;1.20;;
14102;SDS011;7129;48.832;12.472;2022-09-17T19:06:39;2.10;;;1.33;;
14102;SDS011;7129;48.832;12.472;2022-09-17T19:11:43;3.45;;;1.50;;
14102;SDS011;7129;48.832;12.472;2022-09-17T19:16:45;2.88;;;1.30;;
14102;SDS011;7129;48.832;12.472;2022-09-17T19:21:47;4.30;;;1.73;;
14102;SDS011;7129;48.832;12.472;2022-09-17T19:26:51;3.25;;;1.35;;
14102;SDS011;7129;48.832;12.472;2022-09-17T19:31:53;4.32;;;1.60;;
14102;SDS011;7129;48.832;12.472;2022-09-17T19:36:54;1.70;;;1.15;;
14102;SDS011;7129;48.832;12.472;2022-09-17T19:41:58;2.15;;;1.20;;
14102;SDS011;7129;48.832;12.472;2022-09-17T19:47:00;2.08;;;0.77;;
14102;SDS011;7129;48.832;12.472;2022-09-17T19:52:02;0.77;;;0.77;;
14102;SDS011;7129;48.832;12.472;2022-09-17T19:57:05;0.50;;;0.50;;
14102;SDS011;7129;48.832;12.472;2022-09-17T20:02:08;0.50;;;0.50;;
14102;SDS011;7129;48.832;12.472;2022-09-17T20:07:10;0.50;;;0.50;;
14102;SDS011;7129;48.832;12.472;2022-09-17T20:12:13;1.33;;;0.47;;
14102;SDS011;7129;48.832;12.472;2022-09-17T20:17:15;0.88;;;0.80;;
14102;SDS011;7129;48.832;12.472;2022-09-17T20:22:17;2.17;;;0.80;;
14102;SDS011;7129;48.832;12.472;2022-09-17T20:27:20;1.05;;;0.55;;
14102;SDS011;7129;48.832;12.472;2022-09-17T20:32:22;1.42;;;0.63;;
14102;SDS011;7129;48.832;12.472;2022-09-17T20:37:23;2.63;;;0.73;;
14102;SDS011;7129;48.832;12.472;2022-09-17T20:42:27;1.40;;;1.10;;
14102;SDS011;7129;48.832;12.472;2022-09-17T20:47:29;0.80;;;0.80;;
14102;SDS011;7129;48.832;12.472;2022-09-17T20:52:30;1.33;;;1.10;;
14102;SDS011;7129;48.832;12.472;2022-09-17T20:57:34;0.82;;;0.82;;
14102;SDS011;7129;48.832;12.472;2022-09-17T21:02:36;1.40;;;1.30;;
14102;SDS011;7129;48.832;12.472;2022-09-17T21:07:37;1.38;;;1.10;;
14102;SDS011;7129;48.832;12.472;2022-09-17T21:12:40;1.88;;;1.20;;
14102;SDS011;7129;48.832;12.472;2022-09-17T21:17:42;2.90;;;1.20;;
14102;SDS011;7129;48.832;12.472;2022-09-17T21:22:44;1.20;;;1.10;;
14102;SDS011;7129;48.832;12.472;2022-09-17T21:27:47;1.58;;;1.40;;
14102;SDS011;7129;48.832;12.472;2022-09-17T21:32:50;2.70;;;1.30;;
14102;SDS011;7129;48.832;12.472;2022-09-17T21:37:52;1.95;;;1.35;;
14102;SDS011;7129;48.832;12.472;2022-09-17T21:42:55;2.22;;;1.60;;
14102;SDS011;7129;48.832;12.472;2022-09-17T21:47:57;2.33;;;1.55;;
14102;SDS011;7129;48.832;12.472;2022-09-17T21:52:59;1.85;;;1.40;;
14102;SDS011;7129;48.832;12.472;2022-09-17T21:58:02;2.38;;;1.40;;
14102;SDS011;7129;48.832;12.472;2022-09-17T22:03:04;2.58;;;1.48;;
14102;SDS011;7129;48.832;12.472;2022-09-17T22:08:06;2.75;;;1.50;;
14102;SDS011;7129;48.832;12.472;2022-09-17T22:13:09;1.95;;;1.25;;
14102;SDS011;7129;48.832;12.472;2022-09-17T22:18:11;2.75;;;1.20;;
14102;SDS011;7129;48.832;12.472;2022-09-17T22:23:14;2.17;;;1.33;;
14102;SDS011;7129;48.832;12.472;2022-09-17T22:28:17;2.30;;;1.33;;
14102;SDS011;7129;48.832;12.472;2022-09-17T22:33:18;1.23;;;1.17;;
14102;SDS011;7129;48.832;12.472;2022-09-17T22:38:22;4.10;;;1.60;;
14102;SDS011;7129;48.832;12.472;2022-09-17T22:43:25;2.55;;;1.27;;
14102;SDS011;7129;48.832;12.472;2022-09-17T22:48:27;4.10;;;1.40;;
14102;SDS011;7129;48.832;12.472;2022-09-17T22:53:29;2.30;;;1.70;;
14102;SDS011;7129;48.832;12.472;2022-09-17T22:58:33;2.45;;;1.63;;
14102;SDS011;7129;48.832;12.472;2022-09-17T23:03:35;2.63;;;1.30;;
14102;SDS011;7129;48.832;12.472;2022-09-17T23:08:37;1.80;;;1.55;;
14102;SDS011;7129;48.832;12.472;2022-09-17T23:13:41;2.08;;;1.55;;
14102;SDS011;7129;48.832;12.472;2022-09-17T23:18:43;2.42;;;1.67;;
14102;SDS011;7129;48.832;12.472;2022-09-17T23:23:46;3.40;;;1.77;;
14102;SDS011;7129;48.832;12.472;2022-09-17T23:28:50;1.58;;;1.27;;
14102;SDS011;7129;48.832;12.472;2022-09-17T23:33:52;2.15;;;1.10;;
14102;SDS011;7129;48.832;12.472;2022-09-17T23:38:56;2.35;;;1.70;;
14102;SDS011;7129;48.832;12.472;2022-09-17T23:44:02;2.53;;;1.33;;
14102;SDS011;7129;48.832;12.472;2022-09-17T23:49:05;1.52;;;1.42;;
14102;SDS011;7129;48.832;12.472;2022-09-17T23:54:08;1.42;;;1.33;;
14102;SDS011;7129;48.832;12.472;2022-09-17T23:59:11;1.20;;;1.08;;
